FBFT

Francistown Airport

Francistown, Botswana
METAR FBFT 150700Z 07011KT 040V110 9999 FEW025 26/14 Q1023
Observed Flight Rules
Dec-15 @ 07:00 UTC (33 minutes ago) Visual Flight Rules
Wind Visibility Clouds
70° at 11 knots 10,000+ meters
  • Few at 2,500' AGL
Temperatures Readings
Current 26°C / 79°F
Dewpoint 14°C / 57°F
Humidity 48%
Altimeter 30.21" Hg
Pressure 1023 hPa
Elevation 1000
METAR FBFT 150700Z 07011KT 040V110 9999 FEW025 26/14 Q1023
Observed Flight Rules
Dec-15 @ 07:00 UTC
(33 minutes ago)
VFR
Wind Visibility
70° at 11 knots 10,000+ meters
Clouds
  • Few at 2,500' AGL
Temperature Dewpoint
26°C / 79°F 14°C / 57°F
Humidity Altimeter Pressure
48% 30.21" Hg 1023 hPa